Time;durP1;ratioP1;P1;durP2;ratioP2;P2;SDS_P1;SDS_P2;PMS_P1;PMS_P2;Temp;Humidity;BMP_temperature;BMP_pressure;BME280_temperature;BME280_humidity;BME280_pressure;Samples;Min_cycle;Max_cycle;Signal;HPM_P1;HPM_P2
2022/03/07 00:02:20;;;;;;;8.15;4.10;;;1.60;99.90;;;;;;5080154;28;20074;-41
2022/03/07 00:04:46;;;;;;;5.03;4.10;;;1.60;99.90;;;;;;5083229;28;20044;-41
2022/03/07 00:07:11;;;;;;;5.93;4.30;;;1.60;99.90;;;;;;5077276;28;20129;-39
2022/03/07 00:09:37;;;;;;;4.90;4.38;;;1.60;99.90;;;;;;5084245;28;20043;-42
2022/03/07 00:12:03;;;;;;;4.70;4.20;;;1.60;99.90;;;;;;5075431;28;20016;-42
2022/03/07 00:14:29;;;;;;;6.35;4.25;;;1.60;99.90;;;;;;5085993;28;20034;-42
2022/03/07 00:16:54;;;;;;;7.43;4.95;;;1.60;99.90;;;;;;5076891;28;20133;-41
2022/03/07 00:19:20;;;;;;;7.00;4.70;;;1.60;99.90;;;;;;5066989;28;20479;-43
2022/03/07 00:21:45;;;;;;;6.00;4.20;;;1.60;99.90;;;;;;5078385;28;20031;-42
2022/03/07 00:24:11;;;;;;;7.50;3.92;;;1.50;99.90;;;;;;5065446;28;20355;-40
2022/03/07 00:26:36;;;;;;;6.30;3.78;;;1.50;99.90;;;;;;5078351;28;20031;-42
2022/03/07 00:29:02;;;;;;;5.18;3.95;;;1.50;99.90;;;;;;5065828;28;20048;-41
2022/03/07 00:31:27;;;;;;;5.20;3.72;;;1.50;99.90;;;;;;5075073;28;20028;-42
2022/03/07 00:33:53;;;;;;;6.55;3.83;;;1.50;99.90;;;;;;5068911;28;20127;-41
2022/03/07 00:36:20;;;;;;;4.43;3.90;;;1.40;99.90;;;;;;5073155;28;20166;-42
2022/03/07 00:38:46;;;;;;;4.78;3.72;;;1.40;99.90;;;;;;5070552;28;20017;-42
2022/03/07 00:41:12;;;;;;;4.60;3.75;;;1.40;99.90;;;;;;5070917;28;20031;-41
2022/03/07 00:43:39;;;;;;;5.20;4.18;;;1.30;99.90;;;;;;5074157;28;20029;-42
2022/03/07 00:46:05;;;;;;;5.90;3.67;;;1.30;99.90;;;;;;5068058;28;20097;-41
2022/03/07 00:48:31;;;;;;;5.57;3.70;;;1.20;99.90;;;;;;5075942;28;20028;-40
2022/03/07 00:50:56;;;;;;;4.60;3.55;;;1.20;99.90;;;;;;5067155;28;20031;-40
2022/03/07 00:53:26;;;;;;;4.35;3.65;;;1.20;99.90;;;;;;5076853;28;20028;-41
2022/03/07 00:55:53;;;;;;;4.65;3.75;;;1.20;99.90;;;;;;5066435;28;20131;-41
2022/03/07 00:58:20;;;;;;;5.05;3.63;;;1.20;99.90;;;;;;5077186;28;20747;-42
2022/03/07 01:00:45;;;;;;;4.60;3.65;;;1.20;99.90;;;;;;5064586;28;20028;-43
2022/03/07 01:03:13;;;;;;;4.13;3.72;;;1.20;99.90;;;;;;5078309;28;20024;-38
2022/03/07 01:05:40;;;;;;;3.85;3.40;;;1.20;99.90;;;;;;5065342;28;20021;-41
2022/03/07 01:08:06;;;;;;;4.10;3.33;;;1.20;99.90;;;;;;5077799;28;20039;-40
2022/03/07 01:10:31;;;;;;;4.88;4.00;;;1.20;99.90;;;;;;5065318;28;20447;-40
2022/03/07 01:12:57;;;;;;;3.70;3.40;;;1.10;99.90;;;;;;5075426;28;20031;-42
2022/03/07 01:15:23;;;;;;;4.65;3.58;;;1.10;99.90;;;;;;5067991;28;20028;-42
2022/03/07 01:17:49;;;;;;;4.95;3.83;;;1.10;99.90;;;;;;5073063;28;20115;-41
2022/03/07 01:20:15;;;;;;;5.18;4.05;;;1.20;99.90;;;;;;5069534;28;20024;-42
2022/03/07 01:22:44;;;;;;;5.03;4.07;;;1.20;99.90;;;;;;5070366;28;20019;-42
2022/03/07 01:25:10;;;;;;;4.70;3.22;;;1.20;99.90;;;;;;5072070;28;20051;-43
2022/03/07 01:27:35;;;;;;;4.90;4.15;;;1.20;99.90;;;;;;5067420;28;20021;-42
2022/03/07 01:30:02;;;;;;;5.20;4.28;;;1.30;99.90;;;;;;5075250;28;20094;-41
2022/03/07 01:32:27;;;;;;;4.68;4.03;;;1.30;99.90;;;;;;5066894;28;20082;-41
2022/03/07 01:34:53;;;;;;;6.07;4.38;;;1.30;99.90;;;;;;5075562;28;20032;-41
2022/03/07 01:37:19;;;;;;;5.22;4.10;;;1.20;99.90;;;;;;5066488;28;20480;-42
2022/03/07 01:39:44;;;;;;;5.18;3.90;;;1.20;99.90;;;;;;5076448;28;20066;-41
2022/03/07 01:42:10;;;;;;;5.03;4.20;;;1.20;99.90;;;;;;5065115;28;20486;-41
2022/03/07 01:44:37;;;;;;;4.25;3.85;;;1.20;99.90;;;;;;5077741;28;20369;-40
2022/03/07 01:47:06;;;;;;;4.88;4.38;;;1.20;99.90;;;;;;5065177;28;20021;-42
2022/03/07 01:49:32;;;;;;;6.10;4.38;;;1.20;99.90;;;;;;5076639;28;20074;-41
2022/03/07 01:51:57;;;;;;;6.45;5.00;;;1.20;99.90;;;;;;5065784;28;20048;-39
2022/03/07 01:54:24;;;;;;;7.05;5.10;;;1.10;99.90;;;;;;5076066;28;20107;-42
2022/03/07 01:56:52;;;;;;;6.50;4.75;;;1.20;99.90;;;;;;5069166;28;20585;-44
2022/03/07 01:59:23;;;;;;;6.50;4.80;;;1.20;99.90;;;;;;5077845;28;20028;-42
2022/03/07 02:01:49;;;;;;;7.05;4.50;;;1.20;99.90;;;;;;5071669;28;20021;-42
2022/03/07 02:04:15;;;;;;;5.18;4.50;;;1.10;99.90;;;;;;5075835;28;20016;-41
2022/03/07 02:06:41;;;;;;;6.30;5.00;;;1.10;99.90;;;;;;5074867;28;20741;-40
2022/03/07 02:09:08;;;;;;;5.75;5.15;;;1.10;99.90;;;;;;5073185;28;20028;-37
2022/03/07 02:11:34;;;;;;;6.30;4.93;;;1.10;99.90;;;;;;5076034;28;20376;-41
2022/03/07 02:14:14;;;;;;;6.63;5.57;;;1.00;99.90;;;;;;5070706;28;20116;-41
2022/03/07 02:16:40;;;;;;;7.30;6.15;;;0.90;99.90;;;;;;5076511;28;20495;-41
2022/03/07 02:19:06;;;;;;;8.15;5.47;;;0.80;99.90;;;;;;5070016;28;20020;-38
2022/03/07 02:21:34;;;;;;;6.63;5.32;;;0.80;99.90;;;;;;5079402;28;20046;-42
2022/03/07 02:24:00;;;;;;;5.90;5.07;;;0.70;99.90;;;;;;5069911;28;20020;-41
2022/03/07 02:26:26;;;;;;;6.15;4.68;;;0.70;99.90;;;;;;5080311;28;20058;-40
2022/03/07 02:28:51;;;;;;;6.97;5.10;;;0.70;99.90;;;;;;5067933;28;20098;-43
2022/03/07 02:31:19;;;;;;;6.55;4.60;;;0.60;99.90;;;;;;5079938;28;20013;-42
2022/03/07 02:33:46;;;;;;;6.20;4.60;;;0.70;99.90;;;;;;5067865;28;20115;-42
2022/03/07 02:36:12;;;;;;;7.78;5.05;;;0.60;99.90;;;;;;5081250;28;20528;-41
2022/03/07 02:38:38;;;;;;;5.35;4.35;;;0.70;99.90;;;;;;5067581;28;20519;-42
2022/03/07 02:41:03;;;;;;;7.22;5.45;;;0.70;99.90;;;;;;5080490;28;20606;-41
2022/03/07 02:43:29;;;;;;;6.28;5.28;;;0.70;99.90;;;;;;5068803;28;20421;-41
2022/03/07 02:45:57;;;;;;;9.88;6.20;;;0.70;99.90;;;;;;5076534;28;20024;-42
2022/03/07 02:48:23;;;;;;;6.53;5.47;;;0.70;99.90;;;;;;5071467;28;20055;-42
2022/03/07 02:50:48;;;;;;;8.38;6.47;;;0.80;99.90;;;;;;5074448;28;20024;-41
2022/03/07 02:53:14;;;;;;;7.25;4.68;;;0.80;99.90;;;;;;5073274;28;20643;-40
2022/03/07 02:55:39;;;;;;;7.32;5.63;;;0.80;99.90;;;;;;5071738;28;20499;-42
2022/03/07 02:58:05;;;;;;;7.93;5.18;;;0.80;99.90;;;;;;5076483;28;20072;-41
2022/03/07 03:00:31;;;;;;;6.63;5.40;;;0.80;99.90;;;;;;5069148;28;20098;-40
2022/03/07 03:02:57;;;;;;;8.40;5.68;;;0.80;99.90;;;;;;5078977;28;20082;-39
2022/03/07 03:05:23;;;;;;;7.05;4.97;;;0.80;99.90;;;;;;5069685;28;20475;-41
2022/03/07 03:07:51;;;;;;;6.72;4.70;;;0.80;99.90;;;;;;5078223;28;20036;-42
2022/03/07 03:10:20;;;;;;;7.40;5.20;;;0.80;99.90;;;;;;5068301;28;20132;-41
2022/03/07 03:12:47;;;;;;;5.90;4.90;;;0.70;99.90;;;;;;5078393;28;20025;-42
2022/03/07 03:15:14;;;;;;;5.85;4.60;;;0.70;99.90;;;;;;5067622;28;20396;-41
2022/03/07 03:17:46;;;;;;;6.50;4.93;;;0.70;99.90;;;;;;5080078;28;20024;-41
2022/03/07 03:20:14;;;;;;;5.88;5.28;;;0.70;99.90;;;;;;5067783;28;20036;-42
2022/03/07 03:22:41;;;;;;;5.70;4.90;;;0.70;99.90;;;;;;5079712;28;20028;-41
2022/03/07 03:25:08;;;;;;;8.48;5.70;;;0.70;99.90;;;;;;5067904;28;20029;-42
2022/03/07 03:27:34;;;;;;;8.52;5.68;;;0.70;99.90;;;;;;5077469;28;20028;-42
2022/03/07 03:30:00;;;;;;;7.18;5.47;;;0.70;99.90;;;;;;5068247;28;20173;-41
2022/03/07 03:32:26;;;;;;;7.20;5.68;;;0.70;99.90;;;;;;5076832;28;20056;-42
2022/03/07 03:34:52;;;;;;;8.20;5.65;;;0.70;99.90;;;;;;5069970;28;20033;-42
2022/03/07 03:37:18;;;;;;;6.88;4.90;;;0.70;99.90;;;;;;5074033;28;20058;-42
2022/03/07 03:39:43;;;;;;;10.95;6.40;;;0.60;99.90;;;;;;5072886;28;20446;-42
2022/03/07 03:42:09;;;;;;;6.63;5.65;;;0.60;99.90;;;;;;5070251;28;20035;-41
2022/03/07 03:44:34;;;;;;;8.30;6.07;;;0.60;99.90;;;;;;5075558;28;20033;-39
2022/03/07 03:47:00;;;;;;;7.53;6.25;;;0.60;99.90;;;;;;5068940;28;20028;-42
2022/03/07 03:49:25;;;;;;;8.43;6.55;;;0.60;99.90;;;;;;5074420;28;20040;-43
2022/03/07 03:51:51;;;;;;;10.60;7.20;;;0.60;99.90;;;;;;5067552;28;20113;-41
2022/03/07 03:54:16;;;;;;;9.05;7.22;;;0.60;99.90;;;;;;5078669;28;20032;-43
2022/03/07 03:56:42;;;;;;;8.23;6.38;;;0.60;99.90;;;;;;5065659;28;20052;-42
2022/03/07 03:59:07;;;;;;;9.02;6.47;;;0.60;99.90;;;;;;5074071;28;20067;-42
2022/03/07 04:01:33;;;;;;;9.10;5.75;;;0.60;99.90;;;;;;5087089;28;20460;-43
2022/03/07 04:03:59;;;;;;;8.93;7.00;;;0.60;99.90;;;;;;5073139;28;20479;-42
2022/03/07 04:06:24;;;;;;;10.23;6.90;;;0.60;99.90;;;;;;5087224;28;20515;-41
2022/03/07 04:08:50;;;;;;;9.35;6.80;;;0.50;99.90;;;;;;5075145;28;20053;-38
2022/03/07 04:11:16;;;;;;;8.65;6.20;;;0.50;99.90;;;;;;5085119;28;20024;-44
2022/03/07 04:13:42;;;;;;;10.73;8.07;;;0.50;99.90;;;;;;5077960;28;20027;-40
2022/03/07 04:16:07;;;;;;;10.50;7.20;;;0.50;99.90;;;;;;5081644;28;20032;-38
2022/03/07 04:18:33;;;;;;;9.48;7.30;;;0.50;99.90;;;;;;5080074;28;20117;-40
2022/03/07 04:20:59;;;;;;;9.07;7.82;;;0.60;99.90;;;;;;5079863;28;20089;-42
2022/03/07 04:23:24;;;;;;;10.48;8.10;;;0.50;99.90;;;;;;5083166;28;20110;-42
2022/03/07 04:25:50;;;;;;;10.35;7.32;;;0.50;99.90;;;;;;5077048;28;20121;-42
2022/03/07 04:28:15;;;;;;;9.43;7.65;;;0.50;99.90;;;;;;5084849;28;20040;-42
2022/03/07 04:30:42;;;;;;;12.20;8.15;;;0.50;99.90;;;;;;5074161;28;20030;-43
2022/03/07 04:33:08;;;;;;;14.52;9.38;;;0.50;99.90;;;;;;5085851;28;20031;-42
2022/03/07 04:35:35;;;;;;;11.77;7.78;;;0.50;99.90;;;;;;5074629;28;20023;-43
2022/03/07 04:38:01;;;;;;;10.68;8.20;;;0.50;99.90;;;;;;5086232;28;20044;-41
2022/03/07 04:40:27;;;;;;;10.55;8.18;;;0.50;99.90;;;;;;5073585;28;20043;-40
2022/03/07 04:42:52;;;;;;;12.38;7.90;;;0.50;99.90;;;;;;5085819;28;20032;-42
2022/03/07 04:45:18;;;;;;;10.93;8.10;;;0.50;99.90;;;;;;5072468;28;20052;-42
2022/03/07 04:47:44;;;;;;;12.80;8.32;;;0.40;99.90;;;;;;5086395;28;20490;-42
2022/03/07 04:50:10;;;;;;;13.60;8.80;;;0.40;99.90;;;;;;5078777;28;20035;-42
2022/03/07 04:52:35;;;;;;;11.30;7.55;;;0.40;99.90;;;;;;5066746;28;20027;-41
2022/03/07 04:55:01;;;;;;;12.50;8.07;;;0.40;99.90;;;;;;5073389;28;20051;-41
2022/03/07 04:57:26;;;;;;;10.55;7.50;;;0.40;99.90;;;;;;5070860;28;20073;-43
2022/03/07 04:59:52;;;;;;;10.20;7.22;;;0.30;99.90;;;;;;5069450;28;20012;-42
2022/03/07 05:02:17;;;;;;;9.38;7.25;;;0.40;99.90;;;;;;5073968;28;20161;-41
2022/03/07 05:04:43;;;;;;;10.00;6.85;;;0.30;99.90;;;;;;5067111;28;20021;-42
2022/03/07 05:07:09;;;;;;;10.40;7.57;;;0.40;99.90;;;;;;5075343;28;20141;-41
2022/03/07 05:09:34;;;;;;;8.68;6.32;;;0.40;99.90;;;;;;5066642;28;20067;-39
2022/03/07 05:12:00;;;;;;;9.70;7.00;;;0.30;99.90;;;;;;5076387;28;20016;-41
2022/03/07 05:14:26;;;;;;;8.75;7.25;;;0.30;99.90;;;;;;5066254;28;20063;-41
2022/03/07 05:16:51;;;;;;;10.63;7.72;;;0.30;99.90;;;;;;5077041;28;20075;-41
2022/03/07 05:19:17;;;;;;;13.68;7.13;;;0.30;99.90;;;;;;5065095;28;20055;-42
2022/03/07 05:21:43;;;;;;;9.25;7.40;;;0.30;99.90;;;;;;5077376;28;20031;-40
2022/03/07 05:24:09;;;;;;;9.45;7.32;;;0.30;99.90;;;;;;5065905;28;20514;-41
2022/03/07 05:26:35;;;;;;;11.30;8.70;;;0.30;99.90;;;;;;5076163;28;20028;-41
2022/03/07 05:29:03;;;;;;;10.35;8.20;;;0.30;99.90;;;;;;5065955;28;20069;-42
2022/03/07 05:31:29;;;;;;;8.13;7.10;;;0.30;99.90;;;;;;5074950;28;20032;-43
2022/03/07 05:33:55;;;;;;;8.50;6.93;;;0.30;99.90;;;;;;5067557;28;20044;-40
2022/03/07 05:36:21;;;;;;;9.13;6.50;;;0.20;99.90;;;;;;5072498;28;20034;-41
2022/03/07 05:38:47;;;;;;;7.97;6.38;;;0.20;99.90;;;;;;5074266;28;20027;-41
2022/03/07 05:41:12;;;;;;;7.55;6.05;;;0.20;99.90;;;;;;5080485;28;20027;-42
2022/03/07 05:43:38;;;;;;;8.77;6.10;;;0.20;99.90;;;;;;5076992;28;20032;-41
2022/03/07 05:46:03;;;;;;;6.65;5.82;;;0.10;99.90;;;;;;5083711;28;20024;-41
2022/03/07 05:48:29;;;;;;;8.00;6.45;;;0.10;99.90;;;;;;5074468;28;20364;-42
2022/03/07 05:50:54;;;;;;;8.07;6.25;;;0.10;99.90;;;;;;5083528;28;20077;-42
2022/03/07 05:53:22;;;;;;;7.78;6.40;;;0.10;99.90;;;;;;5074001;28;20796;-42
2022/03/07 05:55:51;;;;;;;8.40;6.25;;;0.10;99.90;;;;;;5083251;28;20084;-42
2022/03/07 05:58:17;;;;;;;6.32;5.72;;;0.10;99.90;;;;;;5074000;28;20016;-42
2022/03/07 06:00:43;;;;;;;8.25;5.97;;;0.10;99.90;;;;;;5085739;28;20024;-43
2022/03/07 06:03:08;;;;;;;7.43;5.93;;;0.10;99.90;;;;;;5070945;28;20082;-40
2022/03/07 06:05:34;;;;;;;7.07;6.18;;;0.10;99.90;;;;;;5082801;28;20053;-40
2022/03/07 06:08:00;;;;;;;9.27;6.70;;;0.10;99.90;;;;;;5071232;28;20484;-41
2022/03/07 06:10:26;;;;;;;9.50;7.72;;;0.10;99.90;;;;;;5082630;28;20058;-40
2022/03/07 06:12:51;;;;;;;8.75;7.13;;;0.20;99.90;;;;;;5073499;28;20036;-41
2022/03/07 06:15:18;;;;;;;8.30;7.30;;;0.20;99.90;;;;;;5081209;28;20130;-42
2022/03/07 06:17:51;;;;;;;10.75;8.85;;;0.20;99.90;;;;;;5076815;28;20110;-39
2022/03/07 06:20:18;;;;;;;9.30;7.47;;;0.30;99.90;;;;;;5081400;28;20036;-42
2022/03/07 06:22:43;;;;;;;10.30;7.70;;;0.30;99.90;;;;;;5078264;28;20036;-41
2022/03/07 06:25:09;;;;;;;7.78;6.88;;;0.30;99.90;;;;;;5078438;28;20028;-42
2022/03/07 06:27:35;;;;;;;9.48;7.50;;;0.30;99.90;;;;;;5081356;28;20035;-44
2022/03/07 06:30:00;;;;;;;8.20;6.05;;;0.30;99.90;;;;;;5075299;28;20558;-44
2022/03/07 06:32:26;;;;;;;8.55;6.43;;;0.30;99.90;;;;;;5083743;28;20024;-42
2022/03/07 06:34:52;;;;;;;7.30;6.43;;;0.30;99.90;;;;;;5074018;28;20035;-42
2022/03/07 06:37:17;;;;;;;8.02;6.18;;;0.30;99.90;;;;;;5082919;28;20020;-39
2022/03/07 06:39:43;;;;;;;7.95;6.63;;;0.30;99.90;;;;;;5073636;28;20116;-42
2022/03/07 06:42:09;;;;;;;8.82;6.55;;;0.30;99.90;;;;;;5087690;28;20111;-40
2022/03/07 06:44:39;;;;;;;9.18;7.00;;;0.40;99.90;;;;;;5074925;28;20025;-41
2022/03/07 06:47:06;;;;;;;7.65;6.65;;;0.40;99.90;;;;;;5089325;28;20020;-41
2022/03/07 06:49:31;;;;;;;10.90;7.72;;;0.40;99.90;;;;;;5075234;28;20089;-41
2022/03/07 06:51:57;;;;;;;9.23;7.45;;;0.40;99.90;;;;;;5068435;28;20025;-42
2022/03/07 06:54:22;;;;;;;9.40;6.60;;;0.50;99.90;;;;;;5079440;28;20038;-42
2022/03/07 06:56:48;;;;;;;10.90;7.57;;;0.50;99.90;;;;;;5071590;28;20029;-42
2022/03/07 06:59:13;;;;;;;11.02;6.75;;;0.50;99.90;;;;;;5077224;28;20554;-40
2022/03/07 07:01:40;;;;;;;7.93;6.50;;;0.60;99.90;;;;;;5072390;28;20063;-40
2022/03/07 07:04:06;;;;;;;9.00;6.80;;;0.60;99.90;;;;;;5073208;28;20399;-42
2022/03/07 07:06:31;;;;;;;10.20;6.90;;;0.60;99.90;;;;;;5073871;28;20900;-42
2022/03/07 07:08:57;;;;;;;7.45;6.05;;;0.70;99.90;;;;;;5071237;28;20090;-44
2022/03/07 07:11:22;;;;;;;9.05;6.30;;;0.70;99.90;;;;;;5078484;28;20041;-41
2022/03/07 07:13:48;;;;;;;7.38;5.78;;;0.70;99.90;;;;;;5068137;28;20020;-43
2022/03/07 07:16:13;;;;;;;5.97;5.38;;;0.80;99.90;;;;;;5080075;28;20082;-42
2022/03/07 07:18:39;;;;;;;6.50;5.18;;;0.80;99.90;;;;;;5068112;28;20099;-42
2022/03/07 07:21:05;;;;;;;6.68;5.55;;;0.80;99.90;;;;;;5079353;28;20022;-43
2022/03/07 07:23:30;;;;;;;6.78;5.70;;;0.80;99.90;;;;;;5068129;28;20020;-41
2022/03/07 07:25:59;;;;;;;7.20;5.68;;;0.80;99.90;;;;;;5079687;28;20903;-40
2022/03/07 07:28:24;;;;;;;9.73;6.90;;;0.80;99.90;;;;;;5068152;28;20071;-42
2022/03/07 07:30:50;;;;;;;6.82;5.68;;;0.80;99.90;;;;;;5080027;28;20458;-43
2022/03/07 07:33:16;;;;;;;9.27;6.57;;;0.80;99.90;;;;;;5066915;28;20040;-42
2022/03/07 07:35:42;;;;;;;7.43;6.07;;;0.70;99.90;;;;;;5077828;28;20039;-41
2022/03/07 07:38:07;;;;;;;7.38;6.35;;;0.80;99.90;;;;;;5069708;28;20025;-42
2022/03/07 07:40:33;;;;;;;8.73;6.88;;;0.70;99.90;;;;;;5073970;28;20047;-42
2022/03/07 07:42:59;;;;;;;7.00;6.00;;;0.80;99.90;;;;;;5072576;28;20377;-42
2022/03/07 07:45:24;;;;;;;8.60;5.80;;;0.80;99.90;;;;;;5072383;28;20107;-43
2022/03/07 07:47:51;;;;;;;7.50;5.60;;;0.80;99.90;;;;;;5073878;28;20039;-42
2022/03/07 07:50:16;;;;;;;8.80;6.35;;;0.90;99.90;;;;;;5069762;28;20043;-42
2022/03/07 07:52:42;;;;;;;8.50;6.00;;;0.90;99.90;;;;;;5076268;28;20021;-42
2022/03/07 07:55:10;;;;;;;8.70;6.15;;;1.00;99.90;;;;;;5067901;28;20060;-42
2022/03/07 07:57:36;;;;;;;8.88;6.65;;;1.10;99.90;;;;;;5077936;28;20028;-41
2022/03/07 08:00:04;;;;;;;8.18;6.22;;;1.10;99.90;;;;;;5068956;28;20035;-39
2022/03/07 08:02:29;;;;;;;6.93;5.80;;;1.10;99.90;;;;;;5078109;28;20036;-41
2022/03/07 08:04:55;;;;;;;9.63;6.55;;;1.20;99.90;;;;;;5067293;28;20907;-41
2022/03/07 08:07:20;;;;;;;8.50;5.82;;;1.30;99.90;;;;;;5079854;28;20096;-41
2022/03/07 08:09:46;;;;;;;11.45;7.70;;;1.30;99.90;;;;;;5066250;28;20056;-41
2022/03/07 08:12:12;;;;;;;7.72;6.25;;;1.40;99.90;;;;;;5079526;28;20028;-40
2022/03/07 08:14:38;;;;;;;10.05;7.07;;;1.50;99.90;;;;;;5066655;28;20491;-41
2022/03/07 08:17:05;;;;;;;8.25;6.55;;;1.60;99.90;;;;;;5076916;28;20127;-42
2022/03/07 08:19:31;;;;;;;9.77;7.00;;;1.70;99.90;;;;;;5068599;28;20378;-42
2022/03/07 08:21:56;;;;;;;8.02;6.75;;;1.80;99.90;;;;;;5073410;28;20546;-40
2022/03/07 08:24:23;;;;;;;9.23;7.60;;;1.90;99.90;;;;;;5072031;28;20024;-42
2022/03/07 08:26:48;;;;;;;10.18;7.28;;;1.90;99.90;;;;;;5071481;28;20059;-42
2022/03/07 08:29:14;;;;;;;9.32;7.50;;;2.00;99.90;;;;;;5073337;28;20663;-39
2022/03/07 08:31:39;;;;;;;9.65;7.32;;;2.10;99.90;;;;;;5068257;28;20021;-43
2022/03/07 08:34:05;;;;;;;8.82;7.53;;;2.20;99.90;;;;;;5076447;28;20685;-41
2022/03/07 08:36:32;;;;;;;9.15;7.43;;;2.30;99.90;;;;;;5067004;28;20107;-43
2022/03/07 08:38:58;;;;;;;8.32;7.40;;;2.30;99.90;;;;;;5078238;28;20027;-43
2022/03/07 08:41:24;;;;;;;9.48;7.40;;;2.40;99.90;;;;;;5067889;28;20035;-40
2022/03/07 08:43:51;;;;;;;8.75;7.65;;;2.50;99.90;;;;;;5076433;28;20032;-42
2022/03/07 08:46:17;;;;;;;8.95;7.72;;;2.50;99.90;;;;;;5066793;28;20032;-42
2022/03/07 08:48:43;;;;;;;9.50;7.70;;;2.60;99.90;;;;;;5074748;28;20032;-42
2022/03/07 08:51:09;;;;;;;10.43;7.82;;;2.70;99.90;;;;;;5065894;28;20495;-41
2022/03/07 08:53:34;;;;;;;8.30;7.25;;;2.80;99.90;;;;;;5078269;28;20024;-43
2022/03/07 08:56:00;;;;;;;8.73;7.18;;;2.90;99.90;;;;;;5065909;28;20091;-41
2022/03/07 08:58:25;;;;;;;8.25;6.47;;;3.00;99.90;;;;;;5075719;28;20051;-43
2022/03/07 09:00:51;;;;;;;8.38;7.00;;;3.00;99.90;;;;;;5068394;28;20456;-41
2022/03/07 09:03:16;;;;;;;8.25;6.28;;;3.10;99.90;;;;;;5073138;28;20039;-43
2022/03/07 09:05:42;;;;;;;10.18;7.80;;;3.20;99.90;;;;;;5070116;28;20013;-42
2022/03/07 09:08:07;;;;;;;8.55;6.72;;;3.20;99.90;;;;;;5070357;28;20438;-41
2022/03/07 09:10:33;;;;;;;7.68;6.80;;;3.30;99.90;;;;;;5073349;28;20488;-42
2022/03/07 09:12:59;;;;;;;8.05;6.15;;;3.40;99.90;;;;;;5067477;28;20025;-43
2022/03/07 09:15:25;;;;;;;7.93;6.50;;;3.40;99.90;;;;;;5076391;28;20056;-41
2022/03/07 09:17:50;;;;;;;7.70;6.05;;;3.50;99.90;;;;;;5066234;28;20033;-40
2022/03/07 09:20:17;;;;;;;8.38;6.30;;;3.60;99.90;;;;;;5076438;28;20067;-42
2022/03/07 09:22:43;;;;;;;7.90;6.25;;;3.60;99.90;;;;;;5066001;28;20036;-41
2022/03/07 09:25:09;;;;;;;8.65;7.00;;;3.70;99.90;;;;;;5077906;28;20036;-42
2022/03/07 09:27:35;;;;;;;7.60;6.43;;;3.70;99.90;;;;;;5065054;28;20028;-41
2022/03/07 09:30:01;;;;;;;6.43;5.70;;;3.80;99.60;;;;;;5078693;28;20048;-42
2022/03/07 09:32:27;;;;;;;6.90;5.35;;;3.80;99.70;;;;;;5085621;28;20085;-40
2022/03/07 09:34:52;;;;;;;7.45;6.03;;;3.80;99.80;;;;;;5073044;28;20098;-42
2022/03/07 09:37:18;;;;;;;7.18;5.68;;;3.80;99.80;;;;;;5085472;28;20106;-42
2022/03/07 09:39:44;;;;;;;6.07;5.22;;;3.90;99.80;;;;;;5075330;28;20035;-41
2022/03/07 09:42:09;;;;;;;7.47;6.05;;;4.00;99.90;;;;;;5083190;28;20021;-43
2022/03/07 09:44:35;;;;;;;7.68;5.95;;;4.00;99.80;;;;;;5077844;28;20372;-42
2022/03/07 09:47:03;;;;;;;8.40;5.80;;;4.10;99.60;;;;;;5077006;28;20035;-41
2022/03/07 09:49:28;;;;;;;5.93;5.30;;;4.10;99.60;;;;;;5076273;28;20028;-42
2022/03/07 09:51:54;;;;;;;5.60;4.95;;;4.20;99.60;;;;;;5072159;28;20023;-40
2022/03/07 09:54:20;;;;;;;5.80;4.88;;;4.20;99.50;;;;;;5065621;28;20017;-42
2022/03/07 09:56:46;;;;;;;5.65;4.68;;;4.20;99.50;;;;;;5074773;28;20079;-41
2022/03/07 09:59:12;;;;;;;5.40;4.68;;;4.30;99.50;;;;;;5065560;28;20170;-40
2022/03/07 10:01:38;;;;;;;5.28;4.60;;;4.30;99.50;;;;;;5075143;28;20036;-42
2022/03/07 10:04:11;;;;;;;6.50;5.13;;;4.30;99.40;;;;;;5064834;28;20479;-42
2022/03/07 10:06:38;;;;;;;7.68;5.68;;;4.40;99.20;;;;;;5075700;28;20035;-43
2022/03/07 10:09:05;;;;;;;5.80;5.20;;;4.40;98.80;;;;;;5063526;28;20037;-42
2022/03/07 10:11:32;;;;;;;5.72;5.10;;;4.40;98.80;;;;;;5077418;28;20027;-41
2022/03/07 10:14:03;;;;;;;5.35;4.85;;;4.50;98.50;;;;;;5064878;28;20032;-43
2022/03/07 10:16:43;;;;;;;5.35;4.68;;;4.50;98.50;;;;;;5078056;28;20051;-41
2022/03/07 10:19:13;;;;;;;6.93;5.47;;;4.50;98.10;;;;;;5068483;28;20071;-42
2022/03/07 10:21:47;;;;;;;5.85;5.03;;;4.50;97.90;;;;;;5080417;28;20023;-42
2022/03/07 10:24:13;;;;;;;7.13;5.00;;;4.60;97.40;;;;;;5068591;28;20106;-42
2022/03/07 10:26:39;;;;;;;6.72;5.72;;;4.60;97.20;;;;;;5080117;28;20036;-42
2022/03/07 10:29:05;;;;;;;6.97;5.35;;;4.60;97.10;;;;;;5067787;28;20043;-41
2022/03/07 10:31:31;;;;;;;5.63;4.57;;;4.70;97.20;;;;;;5077936;28;20054;-41
2022/03/07 10:34:08;;;;;;;6.13;4.90;;;4.70;97.40;;;;;;5070707;28;20109;-43
2022/03/07 10:36:37;;;;;;;7.28;5.40;;;4.80;97.40;;;;;;5076144;28;20077;-41
2022/03/07 10:39:05;;;;;;;7.40;5.35;;;4.80;97.20;;;;;;5071473;28;20048;-41
2022/03/07 10:41:42;;;;;;;6.45;4.75;;;4.80;96.30;;;;;;5074717;28;20094;-42
2022/03/07 10:44:10;;;;;;;5.68;4.60;;;4.90;96.30;;;;;;5071483;28;20407;-42
2022/03/07 10:46:38;;;;;;;7.07;5.63;;;4.90;96.40;;;;;;5073868;28;20027;-44
2022/03/07 10:49:06;;;;;;;5.57;4.97;;;4.90;96.30;;;;;;5074315;28;20048;-43
2022/03/07 10:51:32;;;;;;;6.10;4.82;;;5.00;96.50;;;;;;5071175;28;20035;-42
2022/03/07 10:54:10;;;;;;;6.43;5.18;;;5.00;96.00;;;;;;5076586;28;20104;-43
2022/03/07 10:56:36;;;;;;;5.43;4.25;;;5.10;96.00;;;;;;5070503;28;20052;-43
2022/03/07 10:59:06;;;;;;;5.97;4.88;;;5.10;96.20;;;;;;5076405;28;20028;-41
2022/03/07 11:01:33;;;;;;;6.07;4.65;;;5.20;96.00;;;;;;5069017;28;20418;-42
2022/03/07 11:03:59;;;;;;;5.82;4.57;;;5.20;95.90;;;;;;5075912;28;20134;-42
2022/03/07 11:06:27;;;;;;;5.45;4.82;;;5.20;96.00;;;;;;5086270;28;20983;-41
2022/03/07 11:08:53;;;;;;;6.25;5.00;;;5.30;96.00;;;;;;5075678;28;20032;-43
2022/03/07 11:11:20;;;;;;;7.63;4.85;;;5.30;96.00;;;;;;5087010;28;20032;-43
2022/03/07 11:13:53;;;;;;;7.07;4.90;;;5.40;96.10;;;;;;5075122;28;20063;-42
2022/03/07 11:16:21;;;;;;;8.60;5.60;;;5.50;96.10;;;;;;5088050;28;20107;-41
2022/03/07 11:18:52;;;;;;;7.18;5.78;;;5.50;96.00;;;;;;5080763;28;20132;-42
2022/03/07 11:21:18;;;;;;;5.72;5.13;;;5.50;96.00;;;;;;5068079;28;20036;-44
2022/03/07 11:23:45;;;;;;;7.45;5.18;;;5.50;96.00;;;;;;5078502;28;20425;-41
2022/03/07 11:26:11;;;;;;;6.95;5.78;;;5.60;96.10;;;;;;5067226;28;20051;-42
2022/03/07 11:28:37;;;;;;;9.38;6.43;;;5.60;96.00;;;;;;5077523;28;20054;-40
2022/03/07 11:31:02;;;;;;;8.32;6.35;;;5.70;95.80;;;;;;5068140;28;20790;-43
2022/03/07 11:33:36;;;;;;;8.65;6.75;;;5.70;95.80;;;;;;5075211;28;20024;-42
2022/03/07 11:36:06;;;;;;;9.05;6.75;;;5.70;95.70;;;;;;5069617;28;20029;-41
2022/03/07 11:38:32;;;;;;;7.45;6.63;;;5.60;95.70;;;;;;5074374;28;20034;-40
2022/03/07 11:41:07;;;;;;;13.75;6.93;;;5.70;95.70;;;;;;5071402;28;20029;-44
2022/03/07 11:43:36;;;;;;;8.02;6.95;;;5.60;95.70;;;;;;5072928;28;20103;-42
2022/03/07 11:46:03;;;;;;;9.02;7.00;;;5.60;95.90;;;;;;5072227;28;20051;-43
2022/03/07 11:48:44;;;;;;;9.63;7.90;;;5.60;96.00;;;;;;5071808;28;20156;-43
2022/03/07 11:51:29;;;;;;;10.57;7.53;;;5.70;95.90;;;;;;5072701;28;20085;-43
2022/03/07 11:53:56;;;;;;;8.82;7.53;;;5.70;95.90;;;;;;5071941;28;20028;-41
2022/03/07 11:56:30;;;;;;;7.10;6.25;;;5.80;95.80;;;;;;5072419;28;20044;-42
2022/03/07 11:58:58;;;;;;;8.70;6.40;;;5.80;95.90;;;;;;5071113;28;20474;-43
2022/03/07 12:01:25;;;;;;;7.90;6.47;;;5.90;96.00;;;;;;5072860;28;20029;-41
2022/03/07 12:03:52;;;;;;;9.57;7.47;;;5.90;95.90;;;;;;5068783;28;20028;-42
2022/03/07 12:06:20;;;;;;;10.88;7.80;;;6.00;95.90;;;;;;5075935;28;20033;-43
2022/03/07 12:08:47;;;;;;;9.75;7.00;;;6.10;95.80;;;;;;5065841;28;20458;-41
2022/03/07 12:11:32;;;;;;;11.68;8.07;;;6.20;95.80;;;;;;5077586;28;20418;-41
2022/03/07 12:14:07;;;;;;;10.27;7.57;;;6.20;95.80;;;;;;5067636;28;20020;-40
2022/03/07 12:16:38;;;;;;;8.85;7.90;;;6.30;95.90;;;;;;5076914;28;20095;-42
2022/03/07 12:19:19;;;;;;;9.15;7.70;;;6.30;95.90;;;;;;5084723;28;20059;-42
2022/03/07 12:21:46;;;;;;;10.38;7.80;;;6.30;96.00;;;;;;5075316;28;20024;-41
2022/03/07 12:24:14;;;;;;;8.07;7.18;;;6.30;96.00;;;;;;5084786;28;20039;-43
2022/03/07 12:26:57;;;;;;;9.57;7.63;;;6.30;96.10;;;;;;5075122;28;20039;-43
2022/03/07 12:29:25;;;;;;;12.90;7.60;;;6.40;96.10;;;;;;5084563;28;20032;-41
2022/03/07 12:31:53;;;;;;;10.85;8.40;;;6.50;96.20;;;;;;5073961;28;20796;-41
2022/03/07 12:34:23;;;;;;;12.35;8.65;;;6.70;96.20;;;;;;5085199;28;20028;-42
2022/03/07 12:37:00;;;;;;;11.00;9.10;;;6.80;96.20;;;;;;5073381;28;20510;-41
2022/03/07 12:39:27;;;;;;;9.93;8.93;;;6.90;95.70;;;;;;5084061;28;20058;-42
2022/03/07 12:41:57;;;;;;;11.10;8.57;;;6.90;95.60;;;;;;5073540;28;20024;-42
2022/03/07 12:44:24;;;;;;;11.63;8.75;;;6.90;95.60;;;;;;5085206;28;20039;-41
2022/03/07 12:46:50;;;;;;;8.95;8.02;;;7.00;95.60;;;;;;5073145;28;20059;-43
2022/03/07 12:49:19;;;;;;;8.73;7.50;;;7.00;95.50;;;;;;5084777;28;20071;-42
2022/03/07 12:51:45;;;;;;;9.55;7.90;;;7.00;95.50;;;;;;5072250;28;20120;-40
2022/03/07 12:54:10;;;;;;;12.30;8.80;;;7.00;95.50;;;;;;5085651;28;20505;-44